Time;durP1;ratioP1;P1;durP2;ratioP2;P2;SDS_P1;SDS_P2;PMS_P1;PMS_P2;Temp;Humidity;BMP_temperature;BMP_pressure;BME280_temperature;BME280_humidity;BME280_pressure;Samples;Min_cycle;Max_cycle;Signal;HPM_P1;HPM_P2
2022/01/26 00:05:46;;;;;;;29.70;14.00;;;;;;;-1.57;55.92;101879.47;5051801;28;20160;-83
2022/01/26 00:06:30;;;;;;;29.17;13.93;;;;;;;-1.73;56.40;101868.59;5052201;28;20173;-83
2022/01/26 00:08:57;;;;;;;31.83;14.60;;;;;;;-1.73;56.50;101881.16;5052155;28;20266;-82
2022/01/26 00:11:23;;;;;;;32.63;15.33;;;;;;;-1.82;56.93;101877.19;5050603;28;20320;-83
2022/01/26 00:13:54;;;;;;;30.87;15.43;;;;;;;-2.08;56.85;101847.94;5051248;28;20278;-83
2022/01/26 00:16:37;;;;;;;31.47;15.00;;;;;;;-2.02;56.78;101858.06;5051653;28;20216;-83
2022/01/26 00:19:06;;;;;;;30.53;14.80;;;;;;;-1.83;56.78;101884.50;5051666;28;20167;-83
2022/01/26 00:21:39;;;;;;;28.57;13.90;;;;;;;-1.81;56.80;101881.53;5051924;28;20179;-85
2022/01/26 00:26:58;;;;;;;28.60;13.03;;;;;;;-1.77;56.70;101877.94;5056352;28;20183;-83
2022/01/26 00:29:19;;;;;;;24.27;13.03;;;;;;;-1.84;56.75;101878.53;5056342;28;20477;-83
2022/01/26 00:40:14;;;;;;;35.43;15.10;;;;;;;-1.83;57.06;101867.81;5055014;28;20175;-83
2022/01/26 00:42:42;;;;;;;36.07;15.90;;;;;;;-1.99;57.08;101846.91;5054883;28;20163;-82
2022/01/26 00:45:09;;;;;;;27.03;14.73;;;;;;;-1.85;56.92;101889.25;5053586;28;20178;-85
2022/01/26 00:47:35;;;;;;;27.47;13.60;;;;;;;-1.86;56.58;101887.44;5054714;28;20588;-84
2022/01/26 00:50:03;;;;;;;29.10;14.57;;;;;;;-1.90;57.15;101886.03;5054995;28;20175;-81
2022/01/26 00:52:39;;;;;;;30.03;13.93;;;;;;;-1.96;57.40;101885.06;5054531;28;20180;-84
2022/01/26 00:55:07;;;;;;;31.07;15.03;;;;;;;-2.16;57.39;101860.88;5054658;28;20187;-84
2022/01/26 00:57:35;;;;;;;30.90;14.60;;;;;;;-1.93;57.46;101880.53;5054674;28;20167;-84
2022/01/26 01:00:05;;;;;;;28.80;13.60;;;;;;;-1.91;57.41;101888.28;5054892;28;20248;-83
2022/01/26 01:02:33;;;;;;;31.13;14.23;;;;;;;-2.49;57.28;101784.56;5054851;28;20266;-84
2022/01/26 01:05:01;;;;;;;23.47;13.57;;;;;;;-1.86;57.29;101877.38;5055034;28;20179;-84
2022/01/26 01:07:31;;;;;;;29.57;14.63;;;;;;;-1.88;57.34;101863.66;5054900;28;20191;-84
2022/01/26 01:09:58;;;;;;;27.53;13.40;;;;;;;-1.88;57.44;101864.56;5054471;28;20179;-81
2022/01/26 01:12:24;;;;;;;28.23;14.90;;;;;;;-1.92;57.22;101852.22;5055664;28;20187;-84
2022/01/26 01:14:49;;;;;;;26.13;13.27;;;;;;;-1.92;57.29;101848.78;5054795;28;20206;-84
2022/01/26 01:17:24;;;;;;;33.93;14.10;;;;;;;-1.82;57.25;101856.19;5056158;28;20172;-85
2022/01/26 01:20:21;;;;;;;31.03;14.90;;;;;;;-1.75;57.11;101858.97;5039141;28;20685;-83
2022/01/26 01:32:52;;;;;;;27.97;13.00;;;;;;;-1.96;56.33;101821.34;5054794;28;20634;-85
2022/01/26 01:35:18;;;;;;;31.87;14.23;;;;;;;-1.74;56.91;101844.16;5054102;28;20671;-84
2022/01/26 01:37:43;;;;;;;31.07;14.87;;;;;;;-1.83;57.36;101842.69;5053847;28;20179;-85
2022/01/26 01:40:09;;;;;;;26.33;13.93;;;;;;;-1.75;56.55;101843.88;5054514;28;20178;-82
2022/01/26 01:42:35;;;;;;;28.80;13.87;;;;;;;-1.96;57.19;101808.78;5054445;28;20239;-82
2022/01/26 01:45:01;;;;;;;28.93;13.80;;;;;;;-1.91;56.94;101828.91;5054348;28;20187;-83
2022/01/26 01:47:26;;;;;;;29.57;13.77;;;;;;;-1.79;57.08;101841.59;5054065;28;20557;-83
2022/01/26 01:49:53;;;;;;;27.87;13.30;;;;;;;-1.83;57.32;101839.28;5054494;28;20194;-83
2022/01/26 01:52:18;;;;;;;27.87;13.03;;;;;;;-2.17;56.76;101782.09;5054169;28;20352;-84
2022/01/26 01:54:50;;;;;;;29.20;13.60;;;;;;;-1.93;57.35;101841.91;5052647;28;20728;-83
2022/01/26 01:57:22;;;;;;;26.00;13.77;;;;;;;-2.04;57.51;101806.66;5054115;28;20164;-84
2022/01/26 01:59:50;;;;;;;28.67;14.17;;;;;;;-1.92;57.47;101821.16;5053940;28;20163;-84
2022/01/26 02:02:15;;;;;;;31.93;14.17;;;;;;;-1.91;57.61;101818.84;5054311;28;20190;-83
2022/01/26 02:04:41;;;;;;;31.13;14.03;;;;;;;-2.40;57.82;101734.88;5054035;28;20604;-85
2022/01/26 02:07:07;;;;;;;24.77;13.43;;;;;;;-1.95;57.49;101808.09;5052432;28;20667;-84
2022/01/26 02:09:32;;;;;;;26.93;14.23;;;;;;;-2.27;57.34;101732.69;5054005;28;20195;-81
2022/01/26 02:12:01;;;;;;;30.67;13.77;;;;;;;-1.90;57.45;101800.63;5052857;28;20245;-82
2022/01/26 02:14:35;;;;;;;24.30;12.97;;;;;;;-1.79;57.19;101806.41;5053174;28;20223;-82
2022/01/26 02:53:26;;;;;;;27.53;13.27;;;;;;;-1.43;55.46;101803.72;5066448;28;20174;-82
2022/01/26 02:55:48;;;;;;;24.07;13.30;;;;;;;-1.71;55.17;101756.69;5077833;28;20222;-78
2022/01/26 03:01:11;;;;;;;28.27;12.37;;;;;;;-1.55;54.92;101786.72;5078814;28;20159;-79
2022/01/26 03:06:41;;;;;;;24.07;11.30;;;;;;;-1.55;55.09;101756.56;5067638;28;20183;-83
2022/01/26 03:09:12;;;;;;;23.87;11.60;;;;;;;-1.28;54.34;101787.53;5063721;28;20163;-83
2022/01/26 03:11:40;;;;;;;23.77;11.53;;;;;;;-1.17;53.91;101775.03;5074430;28;20163;-81
2022/01/26 03:14:24;;;;;;;22.27;12.37;;;;;;;-1.11;54.45;101797.72;5076843;28;20211;-82
2022/01/26 03:16:56;;;;;;;21.17;11.63;;;;;;;-1.03;53.63;101789.72;5077189;28;20198;-81
2022/01/26 03:19:48;;;;;;;27.07;12.03;;;;;;;-1.32;54.16;101752.56;5074578;28;20188;-82
2022/01/26 03:30:27;;;;;;;30.73;12.07;;;;;;;-0.86;53.12;101789.81;5057056;28;20168;-83
2022/01/26 03:35:39;;;;;;;21.93;11.90;;;;;;;-0.89;53.16;101769.22;5052262;28;20210;-83
2022/01/26 03:38:06;;;;;;;23.17;11.77;;;;;;;-0.78;52.76;101799.44;5052599;28;20179;-83
2022/01/26 03:40:35;;;;;;;25.53;12.30;;;;;;;-0.89;53.13;101804.44;5052853;28;20180;-84
2022/01/26 03:43:03;;;;;;;24.73;11.70;;;;;;;-1.10;53.11;101752.66;5052019;28;20171;-83
2022/01/26 03:45:28;;;;;;;24.73;11.33;;;;;;;-1.64;53.00;101681.56;5051513;28;20262;-84
2022/01/26 03:47:55;;;;;;;27.67;12.47;;;;;;;-0.85;53.44;101797.59;5051762;28;20309;-85
2022/01/26 03:50:22;;;;;;;23.50;12.07;;;;;;;-0.81;53.16;101789.84;5051316;28;20199;-84
2022/01/26 03:52:48;;;;;;;25.87;12.03;;;;;;;-0.87;53.35;101765.31;5051275;28;20210;-84
2022/01/26 03:55:13;;;;;;;22.43;12.27;;;;;;;-0.73;52.69;101789.41;5051877;28;20367;-85
2022/01/26 03:57:39;;;;;;;22.60;11.43;;;;;;;-0.80;52.84;101769.03;5051441;28;20704;-83
2022/01/26 04:00:07;;;;;;;20.37;11.30;;;;;;;-0.74;52.67;101791.69;5054061;28;20175;-83
2022/01/26 04:02:34;;;;;;;23.83;11.40;;;;;;;-0.64;52.16;101786.47;5055901;28;20236;-85
2022/01/26 04:05:05;;;;;;;22.37;12.43;;;;;;;-0.87;52.41;101762.81;5055921;28;20187;-84
2022/01/26 04:07:31;;;;;;;21.33;11.17;;;;;;;-0.64;51.86;101787.38;5055740;28;20217;-84
2022/01/26 04:10:04;;;;;;;22.67;12.37;;;;;;;-0.73;52.18;101791.91;5055361;28;20214;-84
2022/01/26 04:12:31;;;;;;;23.43;11.50;;;;;;;-0.73;52.03;101774.28;5055228;28;20226;-84
2022/01/26 04:15:04;;;;;;;22.67;11.37;;;;;;;-0.65;51.98;101785.56;5055618;28;20611;-83
2022/01/26 04:17:29;;;;;;;27.73;13.30;;;;;;;-0.71;52.41;101772.94;5055254;28;20258;-82
2022/01/26 04:19:57;;;;;;;24.97;12.37;;;;;;;-0.61;52.10;101764.28;5055320;28;20254;-84
2022/01/26 04:22:31;;;;;;;25.80;12.83;;;;;;;-0.95;51.97;101731.44;5060727;28;20450;-82
2022/01/26 04:24:58;;;;;;;22.93;12.47;;;;;;;-1.23;51.57;101668.47;5070066;28;20213;-83
2022/01/26 04:27:34;;;;;;;25.03;12.97;;;;;;;-0.64;51.74;101772.28;5064922;28;20175;-83
2022/01/26 04:29:59;;;;;;;27.80;13.40;;;;;;;-0.59;52.10;101785.53;5069884;28;20170;-82
2022/01/26 04:32:25;;;;;;;24.67;12.80;;;;;;;-0.65;51.88;101772.97;5060568;28;20168;-81
2022/01/26 04:34:51;;;;;;;26.50;13.27;;;;;;;-0.69;51.67;101783.22;5055392;28;20195;-82
2022/01/26 04:37:32;;;;;;;27.87;14.10;;;;;;;-0.76;51.76;101763.75;5054669;28;20198;-83
2022/01/26 04:40:03;;;;;;;27.07;13.70;;;;;;;-0.79;51.85;101749.81;5066052;28;20217;-79
2022/01/26 04:45:05;;;;;;;23.37;12.17;;;;;;;-0.68;52.02;101779.13;5062954;28;20554;-79
2022/01/26 04:47:31;;;;;;;25.20;12.20;;;;;;;-0.91;51.92;101720.25;5078214;28;20162;-82
2022/01/26 04:49:57;;;;;;;28.23;13.50;;;;;;;-0.71;51.85;101767.00;5079375;28;20199;-80
2022/01/26 04:52:22;;;;;;;31.07;15.60;;;;;;;-0.58;51.68;101772.28;5077139;28;20172;-79
2022/01/26 04:54:49;;;;;;;28.73;13.60;;;;;;;-0.76;51.69;101751.19;5075296;28;20199;-79
2022/01/26 04:57:15;;;;;;;29.80;15.97;;;;;;;-1.05;51.84;101706.50;5070319;28;20206;-78
2022/01/26 04:59:41;;;;;;;30.77;14.73;;;;;;;-0.65;52.04;101779.59;5075756;28;20171;-81
2022/01/26 05:02:06;;;;;;;28.17;13.33;;;;;;;-0.58;51.34;101774.81;5061601;28;20670;-74
2022/01/26 05:04:32;;;;;;;27.13;12.63;;;;;;;-0.73;51.57;101760.81;5057938;28;20249;-74
2022/01/26 05:06:57;;;;;;;26.67;13.70;;;;;;;-0.75;51.38;101750.50;5054838;28;20175;-74
2022/01/26 05:09:23;;;;;;;27.17;14.17;;;;;;;-0.70;51.05;101759.66;5055246;28;20210;-75
2022/01/26 05:11:51;;;;;;;27.00;14.43;;;;;;;-0.59;51.28;101773.91;5054000;28;20577;-74
2022/01/26 05:14:17;;;;;;;27.23;12.33;;;;;;;-0.58;51.63;101778.25;5053801;28;20223;-74
2022/01/26 05:16:43;;;;;;;29.27;13.93;;;;;;;-0.69;51.11;101748.00;5053936;28;20817;-75
2022/01/26 05:19:08;;;;;;;24.63;12.57;;;;;;;-0.48;50.83;101773.00;5054160;28;20599;-74
2022/01/26 05:21:34;;;;;;;24.47;13.40;;;;;;;-0.54;50.43;101757.88;5053660;28;20526;-74
2022/01/26 05:24:00;;;;;;;32.33;14.67;;;;;;;-0.59;50.91;101775.47;5053506;28;20682;-73
2022/01/26 05:26:25;;;;;;;25.37;13.03;;;;;;;-0.61;50.39;101767.69;5053349;28;20253;-74
2022/01/26 05:28:51;;;;;;;23.80;12.70;;;;;;;-0.56;50.24;101760.81;5053255;28;20259;-74
2022/01/26 05:31:17;;;;;;;25.97;13.97;;;;;;;-0.51;50.68;101763.38;5052929;28;20167;-74
2022/01/26 05:33:43;;;;;;;26.47;12.90;;;;;;;-0.48;50.28;101757.88;5053288;28;20189;-74
2022/01/26 05:36:10;;;;;;;28.43;13.70;;;;;;;-0.34;50.60;101757.47;5053124;28;20214;-74
2022/01/26 05:38:35;;;;;;;29.67;15.47;;;;;;;-0.26;51.25;101760.44;5052921;28;20710;-74
2022/01/26 05:41:02;;;;;;;28.33;14.23;;;;;;;-0.35;52.78;101740.50;5053275;28;20195;-74
2022/01/26 05:43:32;;;;;;;30.73;12.77;;;;;;;-0.13;51.59;101754.72;5053347;28;20175;-72
2022/01/26 05:46:04;;;;;;;23.27;12.07;;;;;;;-0.15;51.07;101757.03;5053141;28;20632;-75
2022/01/26 05:48:30;;;;;;;29.03;14.00;;;;;;;-0.10;50.39;101752.66;5053148;28;20209;-75
2022/01/26 05:51:04;;;;;;;29.03;13.83;;;;;;;-0.03;49.56;101747.88;5053012;28;20738;-75
2022/01/26 05:53:30;;;;;;;26.87;12.73;;;;;;;-0.43;49.39;101681.44;5052826;28;20183;-74
2022/01/26 05:55:56;;;;;;;23.00;11.33;;;;;;;-0.60;50.17;101660.38;5051342;28;20207;-75
2022/01/26 05:58:21;;;;;;;26.10;11.07;;;;;;;-0.19;49.92;101738.69;5052744;28;20183;-76
2022/01/26 06:00:47;;;;;;;32.77;14.63;;;;;;;-0.16;50.22;101751.72;5052740;28;20241;-75
2022/01/26 06:03:13;;;;;;;32.70;15.00;;;;;;;-0.12;50.05;101747.41;5052599;28;20202;-75
2022/01/26 06:05:39;;;;;;;36.20;14.63;;;;;;;-0.08;50.13;101746.25;5052841;28;20190;-74
2022/01/26 06:08:05;;;;;;;28.83;12.77;;;;;;;-0.11;49.96;101746.69;5052692;28;20602;-74
2022/01/26 06:10:30;;;;;;;28.77;12.90;;;;;;;-0.13;50.21;101743.03;5052471;28;20171;-73
2022/01/26 06:12:56;;;;;;;29.27;14.10;;;;;;;-0.10;49.80;101747.63;5052359;28;20223;-76
2022/01/26 06:15:22;;;;;;;31.77;14.47;;;;;;;-0.02;49.68;101744.66;5051358;28;20261;-74
2022/01/26 06:17:47;;;;;;;30.47;13.73;;;;;;;-0.19;49.69;101721.94;5052242;28;20570;-73
2022/01/26 06:20:13;;;;;;;38.13;15.70;;;;;;;-0.12;49.54;101744.88;5052568;28;20540;-74
2022/01/26 06:22:39;;;;;;;31.87;12.87;;;;;;;-0.58;50.04;101685.09;5052158;28;20532;-74
2022/01/26 06:25:06;;;;;;;28.13;13.77;;;;;;;-0.55;50.16;101692.19;5052440;28;20568;-74
2022/01/26 06:27:33;;;;;;;26.30;13.20;;;;;;;-0.48;50.03;101720.13;5051988;28;20670;-74
2022/01/26 06:29:59;;;;;;;26.20;13.97;;;;;;;-0.31;50.65;101746.25;5052372;28;20187;-75
2022/01/26 06:32:24;;;;;;;30.73;14.33;;;;;;;-1.13;50.78;101600.38;5052329;28;20600;-73
2022/01/26 06:34:50;;;;;;;35.87;14.97;;;;;;;-0.35;51.12;101741.41;5050650;28;20650;-74
2022/01/26 06:37:16;;;;;;;40.47;15.50;;;;;;;-0.40;51.06;101722.19;5052032;28;20183;-75
2022/01/26 06:39:42;;;;;;;46.83;22.57;;;;;;;-0.53;51.20;101711.88;5051999;28;20530;-74
2022/01/26 06:42:13;;;;;;;37.37;16.30;;;;;;;-0.60;50.57;101700.66;5051828;28;20172;-74
2022/01/26 06:44:50;;;;;;;36.03;15.43;;;;;;;-0.78;51.43;101678.63;5052115;28;20578;-74
2022/01/26 06:49:51;;;;;;;31.37;14.33;;;;;;;-0.49;51.20;101721.72;5051531;28;20577;-77
2022/01/26 06:52:16;;;;;;;39.80;13.57;;;;;;;-0.57;51.19;101712.09;5051571;28;20183;-76
2022/01/26 06:54:42;;;;;;;27.87;13.83;;;;;;;-0.58;51.98;101726.97;5051809;28;20187;-76
2022/01/26 06:57:07;;;;;;;31.63;13.23;;;;;;;-0.75;51.86;101690.13;5051858;28;20254;-75
2022/01/26 06:59:33;;;;;;;27.10;12.97;;;;;;;-0.86;51.88;101687.56;5051848;28;20211;-73
2022/01/26 07:01:58;;;;;;;31.70;13.37;;;;;;;-0.55;51.55;101737.50;5050217;28;20626;-75
2022/01/26 07:04:24;;;;;;;28.83;13.83;;;;;;;-0.56;51.67;101713.94;5050058;28;20194;-76
2022/01/26 07:06:49;;;;;;;25.37;13.33;;;;;;;-0.72;51.48;101682.09;5050158;28;20257;-75
2022/01/26 07:09:16;;;;;;;26.70;12.97;;;;;;;-0.42;51.30;101716.00;5051356;28;20254;-75
2022/01/26 07:11:42;;;;;;;32.47;13.53;;;;;;;-0.18;51.24;101743.06;5051492;28;20179;-75
2022/01/26 07:14:10;;;;;;;39.90;14.50;;;;;;;-0.37;51.05;101705.03;5051185;28;20215;-76
2022/01/26 07:22:03;;;;;;;26.40;13.50;;;;;;;0.04;50.58;101739.63;5051848;28;20174;-75
2022/01/26 07:24:29;;;;;;;31.40;13.90;;;;;;;0.24;50.71;101753.56;5051096;28;20605;-76
2022/01/26 07:26:54;;;;;;;23.50;12.50;;;;;;;0.15;50.32;101742.09;5033231;28;20195;-76
2022/01/26 07:29:24;;;;;;;26.33;14.03;;;;;;;0.17;50.37;101738.22;5051305;28;20191;-75
2022/01/26 07:31:50;;;;;;;24.33;11.87;;;;;;;0.05;50.28;101727.22;5051216;28;20171;-74
2022/01/26 07:34:16;;;;;;;21.07;12.47;;;;;;;0.06;50.28;101743.25;5050463;28;20182;-76
2022/01/26 07:36:44;;;;;;;22.33;12.67;;;;;;;0.19;51.15;101749.47;5051215;28;20242;-74
2022/01/26 07:39:14;;;;;;;31.83;11.80;;;;;;;0.32;50.35;101752.19;5051408;28;20179;-75
2022/01/26 07:41:39;;;;;;;27.40;12.93;;;;;;;0.14;50.98;101723.56;5051128;28;20168;-74
2022/01/26 07:44:05;;;;;;;33.10;13.47;;;;;;;0.43;50.69;101744.59;5051182;28;20260;-74
2022/01/26 07:46:31;;;;;;;25.23;12.03;;;;;;;0.22;50.60;101704.53;5051225;28;20186;-75
2022/01/26 07:48:57;;;;;;;26.53;13.20;;;;;;;0.46;50.56;101747.56;5051415;28;20179;-75
2022/01/26 07:51:23;;;;;;;31.63;14.93;;;;;;;0.48;50.52;101746.19;5050942;28;20195;-75
2022/01/26 07:53:48;;;;;;;37.97;18.23;;;;;;;0.53;50.20;101736.75;5051139;28;20203;-76
2022/01/26 07:56:14;;;;;;;34.90;15.40;;;;;;;0.38;49.73;101707.72;5051183;28;20729;-75
2022/01/26 07:58:41;;;;;;;32.80;13.97;;;;;;;0.25;50.06;101686.41;5051935;28;20202;-76
2022/01/26 08:01:06;;;;;;;42.97;19.73;;;;;;;0.49;50.54;101724.41;5052103;28;20272;-76
2022/01/26 08:03:34;;;;;;;29.30;13.83;;;;;;;0.54;50.19;101731.06;5051995;28;20653;-75
2022/01/26 08:06:00;;;;;;;30.87;15.37;;;;;;;0.61;50.32;101731.25;5050722;28;20175;-76
2022/01/26 08:08:28;;;;;;;26.97;12.57;;;;;;;0.48;50.10;101687.28;5050258;28;20237;-78
2022/01/26 08:10:54;;;;;;;26.43;13.13;;;;;;;0.71;50.47;101724.31;5052047;28;20182;-76
2022/01/26 08:13:20;;;;;;;31.97;15.77;;;;;;;0.68;50.56;101712.19;5051550;28;20270;-77
2022/01/26 08:15:45;;;;;;;32.57;14.60;;;;;;;0.80;50.65;101722.25;5051383;28;20199;-74
2022/01/26 08:18:11;;;;;;;29.77;15.33;;;;;;;0.78;50.44;101705.94;5052114;28;20172;-76
2022/01/26 08:20:36;;;;;;;30.47;14.90;;;;;;;1.06;50.68;101734.53;5051364;28;20289;-76
2022/01/26 08:23:02;;;;;;;33.33;14.07;;;;;;;0.40;50.53;101615.53;5051841;28;20197;-76
2022/01/26 08:25:28;;;;;;;24.07;12.43;;;;;;;0.94;49.49;101719.22;5051512;28;20651;-77
2022/01/26 08:28:09;;;;;;;23.17;13.30;;;;;;;0.83;49.95;101690.78;5049792;28;20183;-75
2022/01/26 08:30:37;;;;;;;26.63;15.03;;;;;;;0.96;49.73;101703.56;5050886;28;20171;-75
2022/01/26 08:33:07;;;;;;;25.30;13.93;;;;;;;1.18;49.91;101732.84;5052019;28;20199;-76
2022/01/26 08:35:33;;;;;;;31.33;14.20;;;;;;;1.13;49.42;101716.13;5051578;28;20619;-75
2022/01/26 08:37:59;;;;;;;26.87;13.00;;;;;;;0.95;49.80;101676.50;5051622;28;20163;-75
2022/01/26 08:40:25;;;;;;;30.57;13.40;;;;;;;1.32;49.87;101738.28;5051365;28;20658;-76
2022/01/26 08:42:51;;;;;;;28.10;13.47;;;;;;;1.23;50.06;101738.56;5051370;28;20180;-75
2022/01/26 08:45:17;;;;;;;28.70;13.67;;;;;;;1.25;50.62;101739.72;5050596;28;20183;-75
2022/01/26 08:47:43;;;;;;;30.67;14.03;;;;;;;1.35;50.69;101735.28;5054561;28;20262;-75
2022/01/26 08:50:09;;;;;;;26.00;13.40;;;;;;;1.24;51.03;101727.75;5054951;28;20464;-77
2022/01/26 08:52:35;;;;;;;34.37;15.93;;;;;;;1.07;50.99;101688.38;5054309;28;20258;-75
2022/01/26 08:55:03;;;;;;;27.80;15.17;;;;;;;1.47;50.67;101732.00;5054455;28;20261;-78
2022/01/26 08:57:29;;;;;;;29.00;14.53;;;;;;;1.57;50.65;101742.72;5054520;28;20237;-76
2022/01/26 08:59:55;;;;;;;30.23;14.87;;;;;;;1.31;50.76;101697.66;5054295;28;20668;-75
2022/01/26 09:02:20;;;;;;;23.40;11.77;;;;;;;1.12;51.30;101678.94;5054364;28;20186;-75
2022/01/26 09:04:46;;;;;;;26.77;14.13;;;;;;;1.50;51.03;101729.91;5054478;28;20247;-74
2022/01/26 09:07:15;;;;;;;27.83;13.60;;;;;;;1.52;51.31;101738.59;5054086;28;20541;-75
2022/01/26 09:09:43;;;;;;;28.70;13.90;;;;;;;1.58;51.19;101728.47;5054161;28;20233;-75
2022/01/26 09:12:12;;;;;;;28.87;14.80;;;;;;;1.83;50.97;101733.78;5053599;28;20708;-74
2022/01/26 09:14:37;;;;;;;30.73;15.17;;;;;;;1.88;50.71;101725.94;5053949;28;20259;-74
2022/01/26 09:17:05;;;;;;;21.83;14.03;;;;;;;1.97;50.36;101718.06;5053611;28;20265;-76
2022/01/26 09:19:32;;;;;;;34.90;14.87;;;;;;;2.15;49.94;101718.78;5053474;28;20670;-76
2022/01/26 09:22:17;;;;;;;28.67;14.73;;;;;;;2.16;49.83;101708.91;5053568;28;20690;-75
2022/01/26 09:24:43;;;;;;;29.07;15.00;;;;;;;2.30;49.36;101711.75;5051292;28;20183;-75
2022/01/26 09:27:14;;;;;;;24.50;13.80;;;;;;;2.28;49.72;101713.16;5053656;28;20176;-76
2022/01/26 09:29:40;;;;;;;22.10;12.93;;;;;;;2.29;50.04;101707.38;5053615;28;20163;-75
2022/01/26 09:32:07;;;;;;;26.50;14.27;;;;;;;2.40;49.54;101721.56;5053139;28;20183;-78
2022/01/26 09:34:36;;;;;;;27.53;13.93;;;;;;;2.53;49.48;101712.44;5053130;28;20667;-75
2022/01/26 09:37:05;;;;;;;31.87;14.20;;;;;;;2.40;48.51;101682.66;5053307;28;20211;-76
2022/01/26 09:39:30;;;;;;;34.40;13.87;;;;;;;2.66;48.39;101726.78;5053430;28;20171;-75
2022/01/26 09:41:57;;;;;;;32.93;13.87;;;;;;;2.77;48.42;101726.63;5051885;28;20187;-75
2022/01/26 09:44:23;;;;;;;30.13;13.83;;;;;;;2.92;48.67;101715.19;5053234;28;20183;-76
2022/01/26 09:46:49;;;;;;;29.83;14.97;;;;;;;2.95;48.07;101716.50;5053934;28;20552;-76
2022/01/26 09:49:17;;;;;;;31.27;14.20;;;;;;;3.04;47.85;101715.97;5053849;28;20183;-74
2022/01/26 09:51:50;;;;;;;26.43;14.23;;;;;;;3.14;47.45;101714.88;5053132;28;20179;-76
2022/01/26 09:54:18;;;;;;;29.07;13.97;;;;;;;3.13;46.78;101702.03;5051785;28;20179;-75
2022/01/26 09:56:48;;;;;;;33.20;15.40;;;;;;;3.16;47.27;101713.47;5052023;28;20291;-76
2022/01/26 09:59:15;;;;;;;29.43;13.87;;;;;;;3.18;47.96;101716.25;5053480;28;20167;-77
2022/01/26 10:01:46;;;;;;;27.00;14.97;;;;;;;2.80;47.88;101655.28;5052002;28;20186;-77
2022/01/26 10:04:19;;;;;;;24.40;13.00;;;;;;;3.09;48.39;101702.31;5051821;28;20596;-77
2022/01/26 10:06:48;;;;;;;31.33;14.13;;;;;;;3.14;48.53;101703.84;5053095;28;20200;-78
2022/01/26 10:10:06;;;;;;;23.47;13.70;;;;;;;3.24;48.62;101700.25;5053031;28;20183;-78
2022/01/26 10:17:41;;;;;;;31.20;15.20;;;;;;;3.37;47.92;101654.69;5053155;28;20225;-75
2022/01/26 10:20:17;;;;;;;28.73;15.10;;;;;;;3.50;47.89;101676.63;5053417;28;20179;-76
2022/01/26 10:22:43;;;;;;;30.63;15.97;;;;;;;3.48;47.79;101679.84;5053875;28;20219;-76
2022/01/26 10:25:10;;;;;;;28.80;16.77;;;;;;;3.47;47.55;101680.56;5053783;28;20179;-77
2022/01/26 10:27:48;;;;;;;30.67;14.47;;;;;;;3.46;47.85;101682.91;5053130;28;20176;-78
2022/01/26 10:30:15;;;;;;;29.00;15.53;;;;;;;3.44;49.53;101648.81;5052787;28;20178;-78
2022/01/26 10:32:45;;;;;;;35.03;16.93;;;;;;;3.47;48.11;101642.53;5052602;28;20175;-76
2022/01/26 10:35:10;;;;;;;26.70;14.27;;;;;;;3.52;47.79;101645.72;5052838;28;20272;-77
2022/01/26 10:37:40;;;;;;;31.57;14.40;;;;;;;3.46;48.06;101623.00;5052150;28;20219;-76
2022/01/26 10:40:15;;;;;;;28.37;14.90;;;;;;;3.77;46.93;101644.81;5052369;28;20179;-75
2022/01/26 10:43:04;;;;;;;27.77;13.67;;;;;;;3.78;47.17;101655.88;5052183;28;20185;-76
2022/01/26 10:48:59;;;;;;;24.33;13.70;;;;;;;3.79;47.32;101645.03;5052407;28;20182;-77
2022/01/26 10:51:39;;;;;;;29.97;14.70;;;;;;;3.96;47.07;101655.78;5052276;28;20265;-76
2022/01/26 10:54:20;;;;;;;22.43;11.87;;;;;;;3.82;45.84;101660.63;5035962;28;20684;-77
2022/01/26 10:56:46;;;;;;;22.00;12.33;;;;;;;3.83;45.75;101655.78;5051787;28;20195;-76
2022/01/26 10:59:11;;;;;;;27.23;14.53;;;;;;;3.85;46.04;101634.06;5051967;28;20205;-77
2022/01/26 11:01:37;;;;;;;26.03;14.50;;;;;;;3.95;47.14;101638.72;5051818;28;20194;-77
2022/01/26 11:04:04;;;;;;;26.93;13.70;;;;;;;4.02;45.39;101637.91;5052004;28;20191;-77
2022/01/26 11:06:30;;;;;;;26.57;14.17;;;;;;;4.02;45.68;101625.22;5052027;28;20175;-77
2022/01/26 11:09:10;;;;;;;20.90;12.83;;;;;;;4.30;45.71;101640.84;5051190;28;20739;-78
2022/01/26 11:11:35;;;;;;;30.07;13.67;;;;;;;4.46;45.27;101647.94;5052515;28;20163;-77
2022/01/26 11:14:21;;;;;;;24.80;14.13;;;;;;;4.43;43.96;101589.16;5051562;28;20604;-77
2022/01/26 11:17:00;;;;;;;27.83;13.43;;;;;;;4.53;44.06;101592.16;5051540;28;20313;-76
2022/01/26 11:19:25;;;;;;;27.77;14.13;;;;;;;4.74;44.37;101620.31;5056450;28;20182;-76
2022/01/26 11:21:51;;;;;;;25.47;13.83;;;;;;;4.55;43.82;101590.75;5053846;28;20179;-77
2022/01/26 11:24:24;;;;;;;17.53;11.30;;;;;;;4.78;43.81;101625.06;5056925;28;20186;-75
2022/01/26 11:27:04;;;;;;;22.43;11.60;;;;;;;4.47;44.12;101606.59;5056634;28;20167;-76
2022/01/26 11:29:34;;;;;;;23.50;12.20;;;;;;;4.38;43.44;101607.22;5054009;28;20171;-75
2022/01/26 11:32:08;;;;;;;28.40;12.30;;;;;;;4.52;44.04;101619.19;5054025;28;20193;-77
2022/01/26 11:34:35;;;;;;;24.10;13.57;;;;;;;4.52;43.68;101620.81;5055667;28;20228;-76
2022/01/26 11:37:03;;;;;;;19.57;11.43;;;;;;;4.48;43.74;101614.41;5055809;28;20218;-75
2022/01/26 11:45:01;;;;;;;25.20;12.53;;;;;;;4.46;43.08;101604.78;5057421;28;20170;-74
2022/01/26 11:45:15;;;;;;;34.13;15.07;;;;;;;4.21;44.00;101578.75;5055201;28;20168;-77
2022/01/26 11:48:09;;;;;;;23.07;12.07;;;;;;;4.43;43.34;101601.84;5052931;28;20249;-76
2022/01/26 11:50:37;;;;;;;23.33;11.77;;;;;;;4.38;43.99;101601.22;5051994;28;20260;-77
2022/01/26 11:53:05;;;;;;;22.53;12.63;;;;;;;4.34;43.83;101605.00;5051480;28;20239;-76
2022/01/26 11:55:48;;;;;;;25.70;11.77;;;;;;;4.46;43.15;101605.69;5050199;28;20206;-76
2022/01/26 11:58:34;;;;;;;24.50;13.13;;;;;;;4.44;43.27;101601.13;5050464;28;20254;-76
2022/01/26 12:01:28;;;;;;;20.03;11.47;;;;;;;4.48;43.41;101596.63;5052093;28;20712;-77
2022/01/26 12:04:01;;;;;;;24.10;12.87;;;;;;;4.48;43.53;101604.25;5051773;28;20249;-77
2022/01/26 12:06:35;;;;;;;18.90;10.90;;;;;;;4.41;43.11;101586.41;5052230;28;20309;-76
2022/01/26 12:09:02;;;;;;;26.97;13.17;;;;;;;4.30;43.27;101585.03;5052297;28;20195;-74
2022/01/26 12:11:29;;;;;;;20.47;12.47;;;;;;;4.45;43.82;101587.72;5051466;28;20792;-77
2022/01/26 12:14:04;;;;;;;26.07;12.33;;;;;;;4.46;43.26;101589.56;5051386;28;20599;-79
2022/01/26 12:16:36;;;;;;;24.50;13.47;;;;;;;4.47;43.61;101596.44;5051053;28;20686;-77
2022/01/26 12:43:34;;;;;;;22.50;11.87;;;;;;;4.45;44.53;101578.47;5054840;28;20225;-77
2022/01/26 12:45:59;;;;;;;28.97;12.07;;;;;;;4.15;44.29;101525.59;5054059;28;20179;-77
2022/01/26 12:48:25;;;;;;;21.90;11.30;;;;;;;4.19;44.79;101524.38;5054355;28;20206;-76
2022/01/26 12:50:51;;;;;;;27.43;12.90;;;;;;;4.50;45.09;101574.00;5054373;28;20195;-75
2022/01/26 12:53:28;;;;;;;26.33;12.97;;;;;;;4.49;44.61;101574.72;5054547;28;20182;-75
2022/01/26 12:55:59;;;;;;;32.80;12.77;;;;;;;4.51;44.41;101574.19;5054103;28;20214;-76
2022/01/26 12:58:31;;;;;;;21.63;11.50;;;;;;;4.60;44.27;101571.94;5054000;28;20172;-77
2022/01/26 13:01:08;;;;;;;33.57;16.47;;;;;;;4.59;44.98;101567.56;5053779;28;20207;-76
2022/01/26 13:03:41;;;;;;;23.50;11.67;;;;;;;4.23;44.37;101498.66;5054000;28;20171;-76
2022/01/26 13:06:27;;;;;;;21.37;12.57;;;;;;;4.58;44.75;101560.69;5053682;28;20168;-76
2022/01/26 13:08:55;;;;;;;27.90;12.97;;;;;;;4.57;44.74;101564.81;5053893;28;20259;-77
2022/01/26 13:11:27;;;;;;;25.47;13.17;;;;;;;4.59;44.05;101562.50;5053655;28;20171;-75
2022/01/26 13:14:15;;;;;;;28.73;14.07;;;;;;;4.65;44.81;101567.47;5053729;28;20289;-76
2022/01/26 13:16:54;;;;;;;28.53;15.73;;;;;;;4.52;44.80;101545.56;5053530;28;20231;-76
2022/01/26 13:19:37;;;;;;;24.07;12.60;;;;;;;4.80;44.93;101567.78;5052277;28;20227;-76
2022/01/26 13:27:34;;;;;;;27.20;13.70;;;;;;;4.97;44.57;101577.53;5053583;28;20723;-76
2022/01/26 13:30:52;;;;;;;26.83;12.40;;;;;;;4.87;44.29;101554.25;5053489;28;20748;-76